Latest Weather Observations for Bunbury

IDW60801

Issued at 11:05 pm WST Wednesday 30 July 2014 (issued every 30 minutes, with the page automatically refreshed every 10 minutes)

About weather observations | Map of weather stations | Latest weather observations for WA | Other Formats
Station Details ID: 009965 Name: BUNBURY Lat: -33.36 Lon: 115.64 Height: 5.2 m
Data from the previous 72 hours. | See also: Recent months at Bunbury
Date/Time
WST
Temp
°C
App
Temp
°C
Dew
Point
Rel
Hum
%
Delta-T
°C
Wind Press
QNH
hPa
Press
MSL
hPa
Rain
since 9 am
mm
Dir
 
Spd
km/h
Gust
km/h
Spd
kts
Gust
kts
30/11:00pm 13.0 - - - - SSW 17 28 9 15 1023.1 1023.1 0.2
30/10:30pm 13.3 - - - - SSW 15 24 8 13 1022.7 - 0.2
30/10:00pm 14.5 - - - - SW 15 26 8 14 1022.5 1022.5 0.2
30/09:30pm 13.6 - - - - SW 7 15 4 8 1022.3 - 0.2
30/09:00pm 14.0 - - - - SW 9 17 5 9 1022.1 1022.1 0.2
30/08:30pm 13.6 - - - - SW 9 13 5 7 1021.9 - 0.2
30/08:00pm 14.2 - - - - SW 13 22 7 12 1021.6 1021.6 0.2
30/07:30pm 13.7 - - - - SW 11 19 6 10 1021.6 - 0.2
30/07:00pm 14.1 - - - - SSW 11 19 6 10 1021.5 1021.5 0.2
30/06:30pm 14.6 - - - - SW 13 22 7 12 1021.3 - 0.2
30/06:00pm 14.4 - - - - SW 9 17 5 9 1021.0 1021.0 0.2
30/05:30pm 14.5 - - - - SW 7 13 4 7 1020.8 - 0.2
30/05:00pm 13.6 - - - - SW 24 39 13 21 1020.9 1020.9 0.2
30/04:30pm 15.5 - - - - WSW 20 33 11 18 1020.5 - 0.2
30/04:00pm 17.6 - - - - W 17 24 9 13 1020.2 1020.2 0.2
30/03:30pm 17.4 - - - - W 17 24 9 13 1020.0 - 0.2
30/03:00pm 17.7 - - - - W 19 30 10 16 1019.9 1019.9 0.0
30/02:30pm 17.1 - - - - W 15 22 8 12 1019.7 - 0.0
30/02:00pm 16.4 - - - - WSW 19 30 10 16 1019.9 1019.9 0.0
30/01:30pm 18.4 - - - - W 20 32 11 17 1019.8 - 0.0
30/01:00pm 18.6 - - - - WNW 20 30 11 16 1019.8 1019.8 0.0
30/12:30pm 18.0 - - - - WNW 17 26 9 14 1020.2 - 0.0
30/12:00pm 18.9 - - - - WNW 17 24 9 13 1020.5 1020.5 0.0
30/11:30am 17.6 - - - - WNW 20 30 11 16 1020.8 - 0.0
30/11:00am 17.0 - - - - WNW 19 30 10 16 1021.0 1021.0 0.0
30/10:30am 17.5 - - - - WNW 20 32 11 17 1021.1 - 0.0
30/10:00am 17.3 - - - - W 19 28 10 15 1021.2 1021.2 0.0
30/09:30am 17.2 - - - - W 22 30 12 16 1021.0 - 0.0
30/09:00am 16.7 - - - - WNW 17 26 9 14 1020.8 1020.8 1.0
30/08:30am 16.6 - - - - WNW 17 24 9 13 1020.8 - 1.0
30/08:00am 16.6 - - - - W 19 30 10 16 1020.6 1020.6 1.0
30/07:30am 16.1 - - - - W 17 32 9 17 1020.5 - 1.0
30/07:00am 16.4 - - - - W 15 22 8 12 1020.3 1020.3 1.0
30/06:30am 16.0 - - - - W 13 22 7 12 1020.4 - 1.0
30/06:00am 16.1 - - - - W 15 26 8 14 1020.3 1020.3 1.0
30/05:30am 16.3 - - - - WNW 19 32 10 17 1020.2 - 1.0
30/05:00am 16.0 - - - - W 13 20 7 11 1020.1 1020.1 1.0
30/04:30am 15.9 - - - - W 19 28 10 15 1020.2 - 1.0
30/04:00am 15.8 - - - - W 11 17 6 9 1020.3 1020.3 1.0
30/03:30am 16.3 - - - - WNW 15 20 8 11 1020.5 - 1.0
30/03:00am 16.5 - - - - WNW 19 30 10 16 1020.7 1020.7 1.0
30/02:30am 16.3 - - - - WNW 17 26 9 14 1020.9 - 1.0
30/02:00am 16.0 - - - - NW 11 20 6 11 1021.0 1021.0 1.0
30/01:30am 15.5 - - - - NNW 13 20 7 11 1021.2 - 1.0
30/01:00am 15.4 - - - - NW 17 22 9 12 1021.5 1021.5 1.0
30/12:30am 14.5 - - - - NNW 7 15 4 8 1021.7 - 1.0
30/12:00am 14.7 - - - - WNW 20 26 11 14 1022.0 1022.0 1.0
 
Date/Time
WST
Temp
°C
App
Temp
°C
Dew
Point
Rel
Hum
%
Delta-T
°C
Wind Press
QNH
hPa
Press
MSL
hPa
Rain
since 9 am
mm
Dir
 
Spd
km/h
Gust
km/h
Spd
kts
Gust
kts
29/11:30pm 15.7 - - - - WNW 9 17 5 9 1021.7 - 1.0
29/11:00pm 15.4 - - - - WNW 20 32 11 17 1022.1 1022.1 1.0
29/10:30pm 16.2 - - - - W 15 20 8 11 1022.0 - 1.0
29/10:00pm 15.9 - - - - WNW 13 22 7 12 1022.0 1022.0 1.0
29/09:30pm 15.9 - - - - WNW 15 22 8 12 1022.1 - 1.0
29/09:00pm 16.0 - - - - WNW 15 20 8 11 1022.0 1022.0 1.0
29/08:30pm 15.6 - - - - WNW 9 13 5 7 1022.1 - 1.0
29/08:00pm 15.2 - - - - WNW 9 13 5 7 1022.3 1022.3 1.0
29/07:30pm 14.2 - - - - W 7 11 4 6 1022.3 - 1.0
29/07:00pm 14.5 - - - - WNW 7 11 4 6 1022.3 1022.3 0.2
29/06:30pm 14.4 - - - - W 17 26 9 14 1022.6 - 0.2
29/06:00pm 14.7 - - - - WNW 15 26 8 14 1022.4 1022.4 0.2
29/05:30pm 15.2 - - - - WNW 11 20 6 11 1022.0 - 0.0
29/05:00pm 15.9 - - - - WNW 17 28 9 15 1021.9 1021.9 0.0
29/04:30pm 16.3 - - - - NW 13 19 7 10 1021.8 - 0.0
29/04:00pm 16.9 - - - - NW 13 20 7 11 1021.8 1021.8 0.0
29/03:30pm 17.4 - - - - NW 11 19 6 10 1021.6 - 0.0
29/03:00pm 16.0 - - - - W 17 26 9 14 1021.8 1021.8 0.0
29/02:30pm 17.7 - - - - WNW 15 20 8 11 1021.8 - 0.0
29/02:00pm 18.0 - - - - WNW 17 26 9 14 1021.8 1021.8 0.0
29/01:30pm 18.4 - - - - WNW 17 26 9 14 1021.9 - 0.0
29/01:00pm 18.5 - - - - WNW 19 26 10 14 1022.1 1022.1 0.0
29/12:30pm 18.3 - - - - WNW 19 26 10 14 1022.3 - 0.0
29/12:00pm 18.3 - - - - NW 15 20 8 11 1022.6 1022.6 0.0
29/11:30am 17.8 - - - - NW 19 26 10 14 1022.9 - 0.0
29/11:00am 17.6 - - - - WNW 13 24 7 13 1023.2 1023.2 0.0
29/10:30am 17.0 - - - - NW 17 24 9 13 1023.3 - 0.0
29/10:00am 17.1 - - - - NW 11 20 6 11 1023.2 1023.2 0.0
29/09:30am 17.0 - - - - NW 15 22 8 12 1022.8 - 0.0
29/09:00am 16.4 - - - - WNW 9 17 5 9 1022.7 1022.7 0.4
29/08:30am 15.9 - - - - WNW 9 13 5 7 1022.6 - 0.4
29/08:00am 15.5 - - - - WSW 7 13 4 7 1022.5 1022.5 0.4
29/07:30am 15.5 - - - - W 19 30 10 16 1022.2 - 0.4
29/07:00am 16.0 - - - - WNW 11 17 6 9 1021.8 1021.8 0.4
29/06:30am 15.9 - - - - W 15 22 8 12 1021.6 - 0.4
29/06:00am 16.0 - - - - W 13 20 7 11 1021.5 1021.5 0.4
29/05:30am 16.0 - - - - WNW 15 26 8 14 1021.2 - 0.4
29/05:00am 15.8 - - - - W 13 22 7 12 1021.2 1021.2 0.4
29/04:30am 15.5 - - - - WNW 11 15 6 8 1021.2 - 0.4
29/04:00am 15.8 - - - - W 15 20 8 11 1021.4 1021.4 0.4
29/03:30am 15.7 - - - - W 15 24 8 13 1021.2 - 0.4
29/03:00am 15.5 - - - - W 13 24 7 13 1021.3 1021.3 0.4
29/02:30am 15.1 - - - - W 11 19 6 10 1021.3 - 0.4
29/02:00am 15.1 - - - - W 15 26 8 14 1021.3 1021.3 0.4
29/01:30am 14.8 - - - - W 9 13 5 7 1021.3 - 0.4
29/01:00am 14.4 - - - - WNW 7 15 4 8 1021.6 1021.6 0.4
29/12:30am 14.2 - - - - W 9 11 5 6 1021.7 - 0.4
29/12:00am 11.9 - - - - NW 4 6 2 3 1021.9 1021.9 0.4
 
Date/Time
WST
Temp
°C
App
Temp
°C
Dew
Point
Rel
Hum
%
Delta-T
°C
Wind Press
QNH
hPa
Press
MSL
hPa
Rain
since 9 am
mm
Dir
 
Spd
km/h
Gust
km/h
Spd
kts
Gust
kts
28/11:30pm 13.4 - - - - WNW 6 7 3 4 1021.9 - 0.4
28/11:00pm 14.8 - - - - W 20 37 11 20 1022.3 1022.3 0.2
28/10:30pm 15.4 - - - - W 15 24 8 13 1022.1 - 0.2
28/10:00pm 15.0 - - - - W 11 19 6 10 1022.0 1022.0 0.2
28/09:30pm 15.2 - - - - W 7 28 4 15 1022.2 - 0.2
28/09:00pm 14.5 - - - - W 6 9 3 5 1022.2 1022.2 0.2
28/08:30pm 14.6 - - - - WSW 6 9 3 5 1022.0 - 0.2
28/08:00pm 14.9 - - - - W 7 11 4 6 1022.0 1022.0 0.2
28/07:30pm 15.5 - - - - W 13 17 7 9 1022.0 - 0.2
28/07:00pm 15.5 - - - - W 11 19 6 10 1021.8 1021.8 0.2
28/06:30pm 15.2 - - - - W 9 13 5 7 1021.7 - 0.2
28/06:00pm 15.5 - - - - W 15 28 8 15 1021.4 1021.4 0.2
28/05:30pm 16.0 - - - - W 13 22 7 12 1021.2 - 0.2
28/05:00pm 16.3 - - - - W 13 19 7 10 1020.9 1020.9 0.2
28/04:30pm 17.4 - - - - W 13 24 7 13 1020.8 - 0.2
28/04:00pm 17.7 - - - - W 17 28 9 15 1020.7 1020.7 0.2
28/03:30pm 17.6 - - - - W 15 20 8 11 1020.5 - 0.2
28/03:00pm 16.6 - - - - WNW 15 24 8 13 1020.4 1020.4 0.2
28/02:30pm 16.7 - - - - WNW 15 24 8 13 1020.5 - 0.2
28/02:00pm 17.6 - - - - WNW 15 22 8 12 1020.6 1020.6 0.2
28/01:30pm 17.1 - - - - W 13 22 7 12 1020.6 - 0.2
28/01:00pm 17.0 - - - - WNW 11 19 6 10 1021.1 1021.1 0.2
28/12:30pm 18.3 - - - - WNW 15 20 8 11 1021.5 - 0.0
28/12:00pm 17.6 - - - - WNW 19 28 10 15 1021.7 1021.7 0.0
28/11:30am 17.5 - - - - W 20 32 11 17 1021.9 - 0.0
28/11:00am 17.4 - - - - W 15 24 8 13 1022.1 1022.1 0.0
28/10:30am 17.1 - - - - WSW 15 24 8 13 1022.1 - 0.0
28/10:00am 17.0 - - - - WSW 17 24 9 13 1022.0 1022.0 0.0
28/09:30am 16.5 - - - - W 19 32 10 17 1021.6 - 0.0
28/09:00am 17.1 - - - - W 19 30 10 16 1021.3 1021.3 1.2
28/08:30am 16.8 - - - - W 17 24 9 13 1021.3 - 1.2
28/08:00am 15.7 - - - - W 15 24 8 13 1020.8 1020.8 1.2
28/07:30am 15.5 - - - - W 11 19 6 10 1020.5 - 1.2
28/07:00am 15.6 - - - - W 19 30 10 16 1020.1 1020.1 1.2
28/06:30am 15.0 - - - - W 13 20 7 11 1020.0 - 1.2
28/06:00am 15.1 - - - - WSW 17 24 9 13 1019.8 1019.8 1.2
28/05:30am 15.4 - - - - W 15 22 8 12 1019.8 - 1.2
28/05:00am 14.9 - - - - WSW 17 26 9 14 1019.9 1019.9 1.2
28/04:30am 15.1 - - - - W 15 24 8 13 1019.7 - 1.2
28/04:00am 15.4 - - - - W 19 26 10 14 1020.1 1020.1 1.2
28/03:30am 15.0 - - - - W 17 28 9 15 1020.2 - 1.2
28/03:00am 14.6 - - - - WSW 19 33 10 18 1020.2 1020.2 1.2
28/02:30am 14.4 - - - - WNW 11 17 6 9 1020.2 - 1.2
28/02:00am 14.7 - - - - WNW 17 30 9 16 1020.5 1020.5 1.2
28/01:30am 14.7 - - - - W 15 22 8 12 1020.5 - 1.0
28/01:00am 14.2 - - - - W 17 30 9 16 1020.6 1020.6 1.0
28/12:30am 15.1 - - - - W 17 24 9 13 1020.6 - 1.0
28/12:00am 14.7 - - - - W 20 33 11 18 1020.9 1020.9 1.0
 
Date/Time
WST
Temp
°C
App
Temp
°C
Dew
Point
Rel
Hum
%
Delta-T
°C
Wind Press
QNH
hPa
Press
MSL
hPa
Rain
since 9 am
mm
Dir
 
Spd
km/h
Gust
km/h
Spd
kts
Gust
kts
27/11:30pm 15.3 - - - - W 17 26 9 14 1020.9 - 0.8

Other Formats:

Comma delimited format used in spreadsheet applications
http://www.bom.gov.au/fwo/IDW60801/IDW60801.94604.axf

JavaScript Object Notation format (JSON) in row-major order
http://www.bom.gov.au/fwo/IDW60801/IDW60801.94604.json